Time;durP1;ratioP1;P1;durP2;ratioP2;P2;SDS_P1;SDS_P2;PMS_P1;PMS_P2;Temp;Humidity;BMP_temperature;BMP_pressure;BME280_temperature;BME280_humidity;BME280_pressure;Samples;Min_cycle;Max_cycle;Signal;HPM_P1;HPM_P2
2024/01/22 00:01:52;;;;;;;0.30;0.30;;;;;;;-5.40;100.00;101215.41;5110066;28;20442;-56
2024/01/22 00:04:19;;;;;;;0.43;0.43;;;;;;;-5.37;100.00;101222.97;5110217;28;20466;-56
2024/01/22 00:06:46;;;;;;;0.63;0.63;;;;;;;-5.38;100.00;101218.75;5110046;27;20447;-56
2024/01/22 00:09:14;;;;;;;0.60;0.60;;;;;;;-5.37;100.00;101222.97;5109954;28;20532;-56
2024/01/22 00:11:41;;;;;;;0.10;0.10;;;;;;;-5.33;100.00;101223.06;5109600;28;20874;-56
2024/01/22 00:14:08;;;;;;;0.67;0.47;;;;;;;-5.39;100.00;101227.88;5109827;28;20451;-56
2024/01/22 00:16:39;;;;;;;1.50;0.53;;;;;;;-5.36;100.00;101229.63;5109785;28;20470;-56
2024/01/22 00:19:06;;;;;;;2.47;0.77;;;;;;;-5.48;100.00;101237.63;5109725;28;20450;-56
2024/01/22 00:21:33;;;;;;;3.30;0.70;;;;;;;-5.27;100.00;101228.22;5109490;28;20450;-56
2024/01/22 00:24:00;;;;;;;1.70;0.70;;;;;;;-5.42;100.00;101227.81;5109618;28;20997;-56
2024/01/22 00:26:28;;;;;;;0.60;0.60;;;;;;;-5.36;100.00;101227.97;5109974;28;20443;-56
2024/01/22 00:28:55;;;;;;;0.47;0.47;;;;;;;-5.46;100.00;101228.53;5109778;27;20447;-56
2024/01/22 00:31:21;;;;;;;1.13;0.70;;;;;;;-5.42;100.00;101221.97;5109423;28;20490;-57
2024/01/22 00:33:48;;;;;;;2.07;1.43;;;;;;;-5.45;100.00;101222.75;5109411;28;20451;-56
2024/01/22 00:36:15;;;;;;;0.27;0.27;;;;;;;-5.37;100.00;101225.44;5109411;28;20475;-56
2024/01/22 00:38:42;;;;;;;0.23;0.23;;;;;;;-5.40;100.00;101226.22;5109713;28;20451;-55
2024/01/22 00:41:09;;;;;;;1.07;0.33;;;;;;;-5.47;100.00;101216.88;5109448;28;20458;-56
2024/01/22 00:43:38;;;;;;;0.20;0.20;;;;;;;-5.36;100.00;101213.00;5109172;28;20831;-56
2024/01/22 00:46:05;;;;;;;0.60;0.60;;;;;;;-5.59;100.00;101219.84;5109270;28;20454;-56
2024/01/22 00:48:32;;;;;;;0.10;0.10;;;;;;;-5.41;100.00;101219.53;5109753;28;20447;-55
2024/01/22 00:50:59;;;;;;;1.07;0.93;;;;;;;-5.49;100.00;101218.50;5109332;28;20474;-56
2024/01/22 00:53:26;;;;;;;0.10;0.10;;;;;;;-5.49;100.00;101220.97;5109386;28;20455;-56
2024/01/22 00:55:52;;;;;;;0.00;0.00;;;;;;;-5.48;100.00;101217.69;5109606;28;20471;-55
2024/01/22 00:58:19;;;;;;;0.40;0.40;;;;;;;-5.51;100.00;101217.59;5109406;28;20461;-56
2024/01/22 01:00:47;;;;;;;0.47;0.47;;;;;;;-5.50;100.00;101216.78;5109127;28;20463;-56
2024/01/22 01:03:14;;;;;;;0.10;0.10;;;;;;;-5.50;100.00;101209.31;5109274;28;20450;-55
2024/01/22 01:05:41;;;;;;;0.47;0.47;;;;;;;-5.51;100.00;101207.63;5109038;28;20473;-55
2024/01/22 01:08:08;;;;;;;0.50;0.50;;;;;;;-5.48;100.00;101215.19;5109001;28;20449;-55
2024/01/22 01:10:34;;;;;;;0.87;0.83;;;;;;;-5.66;100.00;101215.53;5108759;28;20843;-55
2024/01/22 01:13:02;;;;;;;0.30;0.30;;;;;;;-5.57;100.00;101212.44;5109009;28;20486;-56
2024/01/22 01:15:28;;;;;;;0.33;0.33;;;;;;;-5.71;100.00;101215.38;5109146;28;20457;-56
2024/01/22 01:17:56;;;;;;;0.50;0.47;;;;;;;-5.62;100.00;101216.44;5108842;28;20447;-56
2024/01/22 01:20:23;;;;;;;0.60;0.43;;;;;;;-5.62;100.00;101213.94;5108868;28;20450;-56
2024/01/22 01:22:50;;;;;;;0.30;0.30;;;;;;;-5.48;100.00;101213.53;5108802;28;20458;-56
2024/01/22 01:25:17;;;;;;;0.47;0.47;;;;;;;-5.62;100.00;101204.00;5109107;28;20456;-56
2024/01/22 01:27:44;;;;;;;0.47;0.47;;;;;;;-5.64;100.00;101210.56;5113007;28;20453;-56
2024/01/22 01:30:11;;;;;;;0.30;0.30;;;;;;;-5.72;100.00;101215.34;5113557;28;20835;-56
2024/01/22 01:32:38;;;;;;;0.10;0.10;;;;;;;-5.66;100.00;101207.22;5113357;28;20711;-56
2024/01/22 01:35:07;;;;;;;0.20;0.20;;;;;;;-5.44;100.00;101208.63;5112795;28;20451;-56
2024/01/22 01:37:34;;;;;;;0.10;0.10;;;;;;;-5.32;100.00;101218.94;5112906;27;20520;-55
2024/01/22 01:40:01;;;;;;;0.57;0.57;;;;;;;-5.27;100.00;101207.44;5112744;28;20470;-56
2024/01/22 01:42:28;;;;;;;0.37;0.37;;;;;;;-5.39;100.00;101207.94;5113057;28;20447;-56
2024/01/22 01:44:56;;;;;;;2.40;1.77;;;;;;;-5.54;100.00;101208.38;5112946;28;20975;-56
2024/01/22 01:47:23;;;;;;;0.10;0.10;;;;;;;-5.48;100.00;101208.53;5112804;28;20442;-56
2024/01/22 01:49:51;;;;;;;0.17;0.17;;;;;;;-5.43;100.00;101200.38;5112572;28;20490;-56
2024/01/22 01:52:20;;;;;;;0.10;0.10;;;;;;;-5.33;100.00;101198.13;5112825;28;20844;-55
2024/01/22 01:54:48;;;;;;;0.80;0.47;;;;;;;-5.45;100.00;101212.78;5112822;28;20463;-56
2024/01/22 01:57:15;;;;;;;0.10;0.10;;;;;;;-5.44;100.00;101202.00;5112605;28;20458;-56
2024/01/22 01:59:43;;;;;;;0.00;0.00;;;;;;;-5.64;100.00;101190.63;5112417;28;20447;-56
2024/01/22 02:02:10;;;;;;;0.40;0.40;;;;;;;-5.56;100.00;101199.16;5112430;28;20483;-55
2024/01/22 02:04:37;;;;;;;0.10;0.10;;;;;;;-5.48;100.00;101197.72;5112535;28;20673;-56
2024/01/22 02:07:05;;;;;;;0.63;0.43;;;;;;;-5.46;100.00;101191.16;5112158;28;20797;-56
2024/01/22 02:09:53;;;;;;;0.97;0.33;;;;;;;-5.66;100.00;101202.22;5112162;27;20443;-56
2024/01/22 02:12:20;;;;;;;0.37;0.37;;;;;;;-5.53;100.00;101207.56;5112149;28;20498;-55
2024/01/22 02:14:47;;;;;;;0.17;0.17;;;;;;;-5.70;100.00;101211.28;5112551;28;20948;-56
2024/01/22 02:17:14;;;;;;;0.33;0.33;;;;;;;-5.71;100.00;101210.41;5112261;28;20952;-56
2024/01/22 02:19:41;;;;;;;0.73;0.47;;;;;;;-5.75;100.00;101208.63;5112366;28;20455;-56
2024/01/22 02:22:08;;;;;;;0.30;0.30;;;;;;;-5.73;100.00;101208.66;5111848;28;20458;-56
2024/01/22 02:24:36;;;;;;;0.20;0.20;;;;;;;-5.64;100.00;101206.47;5111901;28;20454;-55
2024/01/22 02:27:03;;;;;;;0.50;0.50;;;;;;;-5.56;100.00;101205.00;5111833;28;20461;-56
2024/01/22 02:29:30;;;;;;;0.60;0.60;;;;;;;-5.51;100.00;101207.63;5112165;28;20439;-56
2024/01/22 02:31:57;;;;;;;0.50;0.37;;;;;;;-5.40;100.00;101211.25;5111895;28;20497;-56
2024/01/22 02:34:24;;;;;;;0.53;0.53;;;;;;;-5.43;100.00;101215.31;5111988;28;20960;-56
2024/01/22 02:36:51;;;;;;;0.10;0.10;;;;;;;-5.70;100.00;101209.63;5111975;28;20458;-56
2024/01/22 02:39:17;;;;;;;0.30;0.30;;;;;;;-5.62;100.00;101216.44;5111786;28;20960;-55
2024/01/22 02:41:46;;;;;;;0.37;0.37;;;;;;;-5.41;100.00;101217.06;5111884;28;20447;-56
2024/01/22 02:44:12;;;;;;;1.70;0.60;;;;;;;-5.52;100.00;101215.91;5111626;28;20455;-56
2024/01/22 02:46:39;;;;;;;0.33;0.20;;;;;;;-5.54;100.00;101210.03;5111583;28;20968;-56
2024/01/22 02:49:09;;;;;;;0.77;0.43;;;;;;;-5.51;100.00;101207.63;5111569;28;20470;-56
2024/01/22 02:51:35;;;;;;;0.37;0.37;;;;;;;-5.74;100.00;101204.50;5111595;28;20467;-55
2024/01/22 02:54:04;;;;;;;0.57;0.57;;;;;;;-5.72;100.00;101201.25;5111518;28;20454;-56
2024/01/22 02:56:31;;;;;;;0.20;0.20;;;;;;;-5.40;100.00;101206.28;5111391;28;20451;-55
2024/01/22 02:59:00;;;;;;;0.50;0.37;;;;;;;-5.46;100.00;101206.09;5111613;28;20450;-56
2024/01/22 03:01:27;;;;;;;1.60;0.83;;;;;;;-5.35;100.00;101207.25;5111373;28;20451;-56
2024/01/22 03:03:53;;;;;;;0.10;0.10;;;;;;;-5.40;100.00;101201.28;5111317;28;20455;-56
2024/01/22 03:06:20;;;;;;;0.77;0.57;;;;;;;-5.66;100.00;101207.22;5111526;28;20447;-56
2024/01/22 03:08:47;;;;;;;0.17;0.17;;;;;;;-5.57;100.00;101202.47;5111267;28;20466;-56
2024/01/22 03:11:14;;;;;;;0.63;0.63;;;;;;;-5.43;100.00;101196.22;5110909;28;20467;-55
2024/01/22 03:13:41;;;;;;;0.37;0.37;;;;;;;-5.27;100.00;101193.31;5111303;28;20486;-55
2024/01/22 03:16:09;;;;;;;0.30;0.30;;;;;;;-5.55;100.00;101200.88;5111227;27;20450;-56
2024/01/22 03:18:36;;;;;;;0.10;0.10;;;;;;;-5.46;100.00;101196.97;5111146;28;20451;-56
2024/01/22 03:21:03;;;;;;;0.53;0.40;;;;;;;-5.29;100.00;101189.94;5110856;28;20454;-56
2024/01/22 03:23:31;;;;;;;0.20;0.20;;;;;;;-5.22;100.00;101190.94;5110888;28;20902;-55
2024/01/22 03:25:57;;;;;;;0.83;0.83;;;;;;;-5.21;100.00;101191.78;5111078;28;20479;-56
2024/01/22 03:28:24;;;;;;;0.30;0.30;;;;;;;-5.14;100.00;101198.63;5110919;28;20451;-56
2024/01/22 03:30:51;;;;;;;0.63;0.63;;;;;;;-5.27;100.00;101198.28;5110542;28;20956;-55
2024/01/22 03:33:19;;;;;;;0.50;0.30;;;;;;;-5.28;100.00;101191.63;5110605;28;20491;-55
2024/01/22 03:35:46;;;;;;;0.30;0.30;;;;;;;-5.49;100.00;101201.03;5110655;28;20817;-55
2024/01/22 03:38:14;;;;;;;0.33;0.33;;;;;;;-5.49;100.00;101194.41;5110590;28;20454;-56
2024/01/22 03:40:40;;;;;;;0.30;0.30;;;;;;;-5.44;100.00;101202.00;5110720;28;20455;-56
2024/01/22 03:43:07;;;;;;;0.70;0.70;;;;;;;-5.39;100.00;101207.94;5110569;28;20451;-56
2024/01/22 03:45:34;;;;;;;0.47;0.47;;;;;;;-5.43;100.00;101207.84;5110459;28;20454;-55
2024/01/22 03:48:01;;;;;;;0.33;0.33;;;;;;;-5.44;100.00;101206.97;5110191;28;20450;-56
2024/01/22 03:50:29;;;;;;;0.63;0.50;;;;;;;-5.55;100.00;101205.88;5109905;28;20467;-56
2024/01/22 03:52:56;;;;;;;0.10;0.10;;;;;;;-5.54;100.00;101207.53;5110459;28;20487;-55
2024/01/22 03:55:23;;;;;;;0.17;0.17;;;;;;;-5.63;100.00;101202.31;5110392;28;20478;-56
2024/01/22 03:57:49;;;;;;;0.20;0.20;;;;;;;-5.51;100.00;101207.63;5110807;28;20454;-56
2024/01/22 04:00:17;;;;;;;1.07;0.80;;;;;;;-5.52;100.00;101215.91;5110648;28;20921;-56
2024/01/22 04:02:44;;;;;;;0.30;0.30;;;;;;;-5.68;100.00;101210.47;5110389;28;20447;-56
2024/01/22 04:05:10;;;;;;;0.93;0.50;;;;;;;-5.63;100.00;101217.25;5110242;28;20838;-56
2024/01/22 04:07:40;;;;;;;0.20;0.20;;;;;;;-5.42;100.00;101217.84;5110092;28;20451;-55
2024/01/22 04:10:08;;;;;;;0.27;0.27;;;;;;;-5.62;100.00;101213.94;5109912;28;20977;-56
2024/01/22 04:12:35;;;;;;;0.40;0.40;;;;;;;-5.52;100.00;101216.75;5109935;28;20491;-56
2024/01/22 04:15:02;;;;;;;1.83;1.07;;;;;;;-5.59;100.00;101214.03;5109852;28;20443;-56
2024/01/22 04:17:29;;;;;;;0.83;0.73;;;;;;;-5.46;100.00;101213.59;5109902;28;20486;-56
2024/01/22 04:19:56;;;;;;;0.70;0.70;;;;;;;-5.40;100.00;101221.22;5109795;28;20458;-56
2024/01/22 04:22:23;;;;;;;0.40;0.40;;;;;;;-5.50;100.00;101220.16;5109780;28;20446;-56
2024/01/22 04:24:51;;;;;;;0.10;0.10;;;;;;;-5.65;100.00;101223.84;5109647;28;20439;-56
2024/01/22 04:27:18;;;;;;;0.57;0.30;;;;;;;-5.63;100.00;101224.72;5109661;28;20987;-56
2024/01/22 04:29:45;;;;;;;2.37;0.40;;;;;;;-5.57;100.00;101224.91;5109652;28;20451;-56
2024/01/22 04:32:12;;;;;;;0.30;0.30;;;;;;;-5.56;100.00;101219.09;5109472;28;20843;-56
2024/01/22 04:34:39;;;;;;;0.27;0.27;;;;;;;-5.46;100.00;101218.56;5109768;28;20447;-55
2024/01/22 04:37:07;;;;;;;1.27;0.67;;;;;;;-5.52;100.00;101221.75;5109366;28;20451;-56
2024/01/22 04:39:35;;;;;;;0.53;0.53;;;;;;;-5.60;100.00;101222.31;5109358;28;20451;-56
2024/01/22 04:42:03;;;;;;;0.90;0.90;;;;;;;-5.67;100.00;101218.81;5109360;28;20450;-56
2024/01/22 04:44:30;;;;;;;1.70;0.60;;;;;;;-5.79;100.00;101221.81;5109503;28;20850;-56
2024/01/22 04:46:57;;;;;;;0.17;0.17;;;;;;;-5.78;100.00;101227.63;5109222;28;20443;-56
2024/01/22 04:49:24;;;;;;;0.30;0.30;;;;;;;-5.62;100.00;101222.28;5109505;28;20828;-56
2024/01/22 04:51:51;;;;;;;2.50;0.73;;;;;;;-5.59;100.00;101226.50;5109627;28;20459;-56
2024/01/22 04:54:18;;;;;;;0.23;0.23;;;;;;;-5.85;100.00;101225.75;5109102;28;20494;-56
2024/01/22 04:56:46;;;;;;;0.50;0.50;;;;;;;-5.99;100.00;101232.84;5109395;28;20455;-55
2024/01/22 04:59:15;;;;;;;0.10;0.10;;;;;;;-5.86;100.00;101234.88;5109600;28;20443;-56
2024/01/22 05:01:42;;;;;;;0.10;0.10;;;;;;;-6.09;100.00;101231.75;5108290;28;20999;-56
2024/01/22 05:04:09;;;;;;;0.80;0.80;;;;;;;-6.18;100.00;101231.47;5109313;28;20553;-56
2024/01/22 05:06:36;;;;;;;0.13;0.13;;;;;;;-6.45;100.00;101232.31;5109000;28;20451;-56
2024/01/22 05:09:04;;;;;;;0.30;0.30;;;;;;;-6.31;100.00;101234.38;5109102;28;20458;-55
2024/01/22 05:11:31;;;;;;;0.47;0.47;;;;;;;-6.02;100.00;101240.22;5108992;28;20461;-55
2024/01/22 05:13:58;;;;;;;0.37;0.37;;;;;;;-6.27;100.00;101244.47;5108727;28;20494;-55
2024/01/22 05:16:26;;;;;;;0.10;0.10;;;;;;;-6.20;100.00;101243.03;5109250;28;20447;-56
2024/01/22 05:18:53;;;;;;;0.33;0.33;;;;;;;-5.97;100.00;101246.19;5109083;28;20451;-56
2024/01/22 05:21:21;;;;;;;0.83;0.73;;;;;;;-5.82;100.00;101251.59;5108848;28;20540;-56
2024/01/22 05:23:49;;;;;;;0.97;0.90;;;;;;;-5.71;100.00;101249.44;5108738;28;20517;-56
2024/01/22 05:26:15;;;;;;;0.40;0.40;;;;;;;-5.62;100.00;101253.81;5108720;28;20459;-56
2024/01/22 05:28:42;;;;;;;0.10;0.10;;;;;;;-5.52;100.00;101255.78;5108729;28;20533;-56
2024/01/22 05:31:09;;;;;;;0.63;0.33;;;;;;;-5.68;100.00;101257.81;5108671;28;20864;-56
2024/01/22 05:33:36;;;;;;;0.30;0.30;;;;;;;-5.69;100.00;101258.63;5108607;28;20490;-56
2024/01/22 05:36:03;;;;;;;1.50;0.33;;;;;;;-5.89;100.00;101251.38;5108880;28;20446;-56
2024/01/22 05:38:30;;;;;;;0.50;0.50;;;;;;;-6.13;100.00;101244.06;5108751;28;20451;-55
2024/01/22 05:40:57;;;;;;;0.20;0.20;;;;;;;-5.95;100.00;101252.09;5108715;28;20905;-56
2024/01/22 05:43:24;;;;;;;0.10;0.10;;;;;;;-6.12;100.00;101248.25;5109102;28;20439;-55
2024/01/22 05:45:50;;;;;;;0.70;0.70;;;;;;;-6.64;100.00;101248.28;5108740;28;20457;-56
2024/01/22 05:48:17;;;;;;;0.40;0.40;;;;;;;-6.45;100.00;101243.91;5108815;28;20451;-56
2024/01/22 05:50:46;;;;;;;0.20;0.20;;;;;;;-6.47;100.00;101243.84;5108558;28;20467;-56
2024/01/22 05:53:12;;;;;;;1.70;0.33;;;;;;;-6.44;100.00;101245.59;5108552;28;20494;-55
2024/01/22 05:55:39;;;;;;;0.20;0.20;;;;;;;-6.26;100.00;101248.66;5108568;28;20446;-56
2024/01/22 05:58:06;;;;;;;0.23;0.23;;;;;;;-6.06;100.00;101255.91;5108634;28;20484;-55
2024/01/22 06:00:33;;;;;;;0.10;0.10;;;;;;;-5.92;100.00;101254.63;5108553;28;21107;-56
2024/01/22 06:03:00;;;;;;;2.13;0.80;;;;;;;-6.05;100.00;101260.94;5108729;28;20459;-56
2024/01/22 06:05:27;;;;;;;0.10;0.10;;;;;;;-6.10;100.00;101254.13;5108410;28;20451;-56
2024/01/22 06:07:55;;;;;;;0.43;0.43;;;;;;;-5.99;100.00;101248.66;5108578;28;20458;-55
2024/01/22 06:10:22;;;;;;;0.30;0.30;;;;;;;-5.93;100.00;101252.97;5108615;28;20467;-55
2024/01/22 06:12:49;;;;;;;0.80;0.80;;;;;;;-6.36;100.00;101254.16;5110649;28;20951;-56
2024/01/22 06:15:16;;;;;;;0.20;0.20;;;;;;;-6.19;100.00;101248.06;5112250;28;20447;-55
2024/01/22 06:17:43;;;;;;;0.43;0.37;;;;;;;-6.04;100.00;101249.31;5112190;28;20458;-55
2024/01/22 06:20:11;;;;;;;5.57;2.10;;;;;;;-6.11;100.00;101252.41;5112141;28;20447;-56
2024/01/22 06:22:38;;;;;;;0.20;0.20;;;;;;;-6.29;100.00;101253.53;5112066;28;20470;-56
2024/01/22 06:25:07;;;;;;;0.37;0.37;;;;;;;-6.11;100.00;101263.22;5112327;28;20447;-56
2024/01/22 06:27:34;;;;;;;0.77;0.23;;;;;;;-5.88;100.00;101263.03;5112111;28;20462;-55
2024/01/22 06:30:01;;;;;;;0.10;0.10;;;;;;;-5.75;100.00;101258.47;5111820;28;20960;-56
2024/01/22 06:32:28;;;;;;;0.20;0.20;;;;;;;-6.02;100.00;101257.66;5112068;27;20473;-55
2024/01/22 06:34:55;;;;;;;0.17;0.17;;;;;;;-5.84;100.00;101263.19;5111670;28;20494;-55
2024/01/22 06:37:24;;;;;;;0.20;0.20;;;;;;;-5.70;100.00;101266.91;5111895;28;20466;-56
2024/01/22 06:39:50;;;;;;;0.40;0.40;;;;;;;-5.60;100.00;101272.16;5111625;28;20487;-56
2024/01/22 06:42:19;;;;;;;0.40;0.40;;;;;;;-5.62;100.00;101271.25;5111761;28;20463;-55
2024/01/22 06:44:45;;;;;;;0.37;0.37;;;;;;;-5.49;100.00;101275.81;5111845;28;20447;-56
2024/01/22 06:47:13;;;;;;;0.30;0.30;;;;;;;-5.82;100.00;101269.03;5111661;28;20447;-56
2024/01/22 06:49:39;;;;;;;0.20;0.20;;;;;;;-5.76;100.00;101264.25;5111575;28;20447;-56
2024/01/22 06:52:06;;;;;;;1.30;0.60;;;;;;;-5.78;100.00;101263.34;5111694;28;20963;-56
2024/01/22 06:54:33;;;;;;;2.17;0.83;;;;;;;-5.73;100.00;101260.97;5111339;28;20483;-55
2024/01/22 06:57:00;;;;;;;0.30;0.30;;;;;;;-5.71;100.00;101265.22;5111300;28;20878;-55
2024/01/22 06:59:30;;;;;;;0.10;0.10;;;;;;;-5.76;100.00;101260.91;5111584;28;20447;-55
2024/01/22 07:01:58;;;;;;;0.43;0.43;;;;;;;-6.08;100.00;101257.47;5111792;28;20438;-55
2024/01/22 07:04:25;;;;;;;0.17;0.17;;;;;;;-6.00;100.00;101256.06;5111623;28;20455;-56
2024/01/22 07:06:52;;;;;;;0.13;0.13;;;;;;;-5.88;100.00;101266.38;5111385;28;20447;-55
2024/01/22 07:09:19;;;;;;;1.23;0.93;;;;;;;-5.85;100.00;101258.13;5111281;28;20458;-55
2024/01/22 07:11:46;;;;;;;0.20;0.20;;;;;;;-5.86;100.00;101264.78;5111083;28;20446;-55
2024/01/22 07:14:13;;;;;;;0.77;0.30;;;;;;;-5.93;100.00;101257.97;5111172;28;20555;-55
2024/01/22 07:16:41;;;;;;;0.30;0.30;;;;;;;-5.83;100.00;101249.91;5111584;28;20451;-56
2024/01/22 07:19:08;;;;;;;2.13;0.67;;;;;;;-5.59;100.00;101258.91;5111037;28;20470;-56
2024/01/22 07:21:35;;;;;;;0.13;0.13;;;;;;;-5.49;100.00;101260.84;5110985;28;20447;-55
2024/01/22 07:24:02;;;;;;;0.10;0.10;;;;;;;-5.37;100.00;101256.19;5110283;28;20482;-56
2024/01/22 07:26:29;;;;;;;0.17;0.17;;;;;;;-5.33;100.00;101255.47;5110848;28;20451;-56
2024/01/22 07:28:56;;;;;;;0.83;0.83;;;;;;;-5.25;100.00;101261.53;5110845;27;20443;-55
2024/01/22 07:31:22;;;;;;;1.13;1.03;;;;;;;-5.04;100.00;101262.91;5110744;28;20435;-56
2024/01/22 07:33:51;;;;;;;1.03;0.93;;;;;;;-4.95;100.00;101260.63;5110712;28;20494;-56
2024/01/22 07:36:17;;;;;;;1.07;0.97;;;;;;;-4.90;100.00;101261.59;5110617;27;21071;-56
2024/01/22 07:38:45;;;;;;;0.57;0.57;;;;;;;-4.80;100.00;101266.03;5110630;28;20486;-56
2024/01/22 07:41:12;;;;;;;0.27;0.27;;;;;;;-4.63;100.00;101273.91;5110424;28;20475;-56
2024/01/22 07:43:38;;;;;;;1.93;0.67;;;;;;;-4.56;100.00;101269.94;5110380;28;20830;-56
2024/01/22 07:46:05;;;;;;;1.07;1.03;;;;;;;-4.61;100.00;101272.31;5110558;28;20454;-55
2024/01/22 07:48:31;;;;;;;0.40;0.40;;;;;;;-4.40;100.00;101269.50;5110283;28;20979;-56
2024/01/22 07:50:59;;;;;;;0.90;0.90;;;;;;;-4.21;100.00;101282.44;5110532;28;20475;-56
2024/01/22 07:53:26;;;;;;;1.10;1.03;;;;;;;-4.03;100.00;101282.84;5110788;28;20350;-56
2024/01/22 07:55:53;;;;;;;1.53;1.27;;;;;;;-3.97;100.00;101275.47;5110282;28;20454;-56
2024/01/22 07:58:20;;;;;;;0.57;0.57;;;;;;;-3.90;100.00;101274.81;5110168;28;20459;-56
2024/01/22 08:00:47;;;;;;;0.90;0.77;;;;;;;-3.81;100.00;101285.81;5110404;28;20447;-56
2024/01/22 08:03:13;;;;;;;2.13;0.80;;;;;;;-3.94;100.00;101283.03;5110162;27;20443;-57
2024/01/22 08:05:41;;;;;;;3.20;0.97;;;;;;;-4.17;100.00;101277.53;5110330;28;20824;-56
2024/01/22 08:08:10;;;;;;;2.07;1.93;;;;;;;-4.04;100.00;101281.16;5110072;28;20842;-56
2024/01/22 08:10:37;;;;;;;3.67;1.40;;;;;;;-3.89;100.00;101278.16;5110137;28;20535;-56
2024/01/22 08:13:04;;;;;;;1.03;1.03;;;;;;;-3.80;100.00;101280.84;5110227;28;20447;-56
2024/01/22 08:15:31;;;;;;;1.80;1.17;;;;;;;-3.70;100.00;101276.88;5109685;28;21023;-56
2024/01/22 08:17:58;;;;;;;1.10;0.87;;;;;;;-3.62;100.00;101267.91;5109972;28;20446;-56
2024/01/22 08:20:24;;;;;;;0.93;0.73;;;;;;;-3.52;100.00;101277.28;5109805;28;20447;-56
2024/01/22 08:22:51;;;;;;;0.90;0.90;;;;;;;-3.69;100.00;101268.59;5109909;28;20474;-56
2024/01/22 08:25:27;;;;;;;0.30;0.30;;;;;;;-3.75;100.00;101270.94;5109556;27;21010;-56
2024/01/22 08:27:54;;;;;;;2.67;1.10;;;;;;;-3.75;100.00;101278.44;5109698;28;20492;-56
2024/01/22 08:30:21;;;;;;;3.00;1.33;;;;;;;-3.61;100.00;101277.06;5109632;28;20454;-56
2024/01/22 08:32:48;;;;;;;0.30;0.30;;;;;;;-3.41;100.00;101283.31;5109391;28;20964;-56
2024/01/22 08:35:16;;;;;;;0.60;0.60;;;;;;;-3.43;100.00;101279.13;5109308;28;20495;-56
2024/01/22 08:37:45;;;;;;;3.90;0.77;;;;;;;-3.34;100.00;101280.97;5109609;28;20447;-56
2024/01/22 08:40:16;;;;;;;1.47;0.90;;;;;;;-3.39;100.00;101285.88;5109467;28;20441;-56
2024/01/22 08:42:46;;;;;;;2.40;0.60;;;;;;;-3.37;100.00;101288.38;5109391;27;20526;-56
2024/01/22 08:45:12;;;;;;;0.40;0.40;;;;;;;-3.44;100.00;101304.94;5109607;28;20491;-56
2024/01/22 08:47:39;;;;;;;0.30;0.30;;;;;;;-3.53;100.00;101300.59;5109194;28;20512;-56
2024/01/22 08:50:07;;;;;;;0.60;0.57;;;;;;;-3.69;100.00;101298.59;5109609;28;20443;-56
2024/01/22 08:52:34;;;;;;;0.30;0.30;;;;;;;-3.77;100.00;101285.91;5109450;28;20443;-56
2024/01/22 08:55:01;;;;;;;1.27;1.17;;;;;;;-3.58;100.00;101289.63;5109139;28;20486;-57
2024/01/22 08:57:28;;;;;;;2.97;1.30;;;;;;;-3.35;100.00;101277.59;5109144;28;21106;-56
2024/01/22 08:59:57;;;;;;;0.67;0.67;;;;;;;-3.11;100.00;101272.25;5109390;27;20447;-56
2024/01/22 09:02:23;;;;;;;0.33;0.33;;;;;;;-2.96;100.00;101281.69;5109346;28;20455;-56
2024/01/22 09:04:51;;;;;;;1.80;1.20;;;;;;;-2.97;100.00;101280.00;5109439;28;20520;-56
2024/01/22 09:07:19;;;;;;;0.83;0.83;;;;;;;-2.89;100.00;101285.16;5108990;28;20446;-56
2024/01/22 09:09:45;;;;;;;0.30;0.30;;;;;;;-2.81;100.00;101283.63;5108974;28;20447;-57
2024/01/22 09:12:12;;;;;;;0.67;0.67;;;;;;;-2.75;100.00;101293.75;5108964;28;20451;-56
2024/01/22 09:14:39;;;;;;;1.40;0.80;;;;;;;-2.65;100.00;101295.56;5109103;28;20518;-56
2024/01/22 09:17:07;;;;;;;1.70;1.33;;;;;;;-2.59;100.00;101295.72;5108949;28;20446;-56
2024/01/22 09:19:34;;;;;;;2.30;1.37;;;;;;;-2.51;100.00;101293.31;5108838;28;20458;-56
2024/01/22 09:22:01;;;;;;;0.23;0.23;;;;;;;-2.66;100.00;101295.56;5108867;28;20466;-56
2024/01/22 09:24:28;;;;;;;0.90;0.90;;;;;;;-3.33;100.00;101288.50;5108801;28;20443;-56
2024/01/22 09:26:54;;;;;;;0.20;0.20;;;;;;;-3.39;100.00;101292.53;5108948;28;20446;-56
2024/01/22 09:29:21;;;;;;;1.33;0.50;;;;;;;-3.17;100.00;101297.16;5108831;28;20960;-57
2024/01/22 09:31:48;;;;;;;0.40;0.40;;;;;;;-3.13;100.00;101296.38;5108772;28;20839;-56
2024/01/22 09:34:16;;;;;;;2.90;1.20;;;;;;;-3.42;100.00;101293.31;5108906;28;20490;-56
2024/01/22 09:36:43;;;;;;;0.20;0.20;;;;;;;-3.45;100.00;101294.09;5108773;28;20830;-56
2024/01/22 09:39:09;;;;;;;0.83;0.83;;;;;;;-3.27;100.00;101287.78;5109276;28;20451;-56
2024/01/22 09:41:36;;;;;;;6.00;1.67;;;;;;;-3.17;100.00;101287.16;5108810;28;20443;-56
2024/01/22 09:44:03;;;;;;;0.40;0.40;;;;;;;-3.00;100.00;101293.28;5108576;28;20439;-57
2024/01/22 09:46:31;;;;;;;0.60;0.60;;;;;;;-3.17;100.00;101284.66;5108798;28;20447;-56
2024/01/22 09:48:58;;;;;;;1.03;1.03;;;;;;;-3.12;100.00;101287.22;5112670;28;20455;-56
2024/01/22 09:51:28;;;;;;;1.27;1.17;;;;;;;-2.82;100.00;101274.41;5112593;28;20455;-56
2024/01/22 09:54:03;;;;;;;1.27;1.17;;;;;;;-2.83;100.00;101275.25;5112778;28;20446;-56
2024/01/22 09:56:31;;;;;;;2.47;2.27;;;;;;;-2.73;100.00;101277.09;5112511;28;20470;-56
2024/01/22 09:59:04;;;;;;;0.57;0.57;;;;;;;-2.72;100.00;101271.25;5113072;28;20439;-57
2024/01/22 10:01:32;;;;;;;0.80;0.80;;;;;;;-2.57;100.00;101271.50;5112339;28;20901;-56
2024/01/22 10:03:59;;;;;;;1.80;1.40;;;;;;;-2.36;100.00;101277.69;5112448;28;20918;-57
2024/01/22 10:06:29;;;;;;;1.63;1.37;;;;;;;-2.13;100.00;101271.38;5112464;28;20457;-56
2024/01/22 10:08:59;;;;;;;0.50;0.50;;;;;;;-2.39;100.00;101270.97;5112417;28;20442;-56
2024/01/22 10:11:26;;;;;;;1.10;1.00;;;;;;;-2.53;100.00;101270.75;5112375;28;20454;-56
2024/01/22 10:13:54;;;;;;;1.63;1.37;;;;;;;-2.45;100.00;101257.50;5112338;28;20447;-56
2024/01/22 10:16:25;;;;;;;0.50;0.50;;;;;;;-2.76;100.00;101257.03;5112326;28;20451;-56
2024/01/22 10:18:59;;;;;;;2.33;1.13;;;;;;;-2.77;100.00;101252.81;5112324;28;20447;-56
2024/01/22 10:21:26;;;;;;;0.93;0.90;;;;;;;-2.62;100.00;101250.59;5112201;28;20443;-56
2024/01/22 10:23:58;;;;;;;1.13;0.80;;;;;;;-2.47;100.00;101251.63;5111913;28;20443;-56
2024/01/22 10:26:25;;;;;;;1.53;1.03;;;;;;;-2.38;100.00;101245.13;5112466;28;20435;-56
2024/01/22 10:28:52;;;;;;;1.40;0.87;;;;;;;-2.32;100.00;101244.38;5112096;28;20443;-56
2024/01/22 10:31:20;;;;;;;1.03;0.97;;;;;;;-2.59;100.00;101240.63;5112227;28;20450;-56
2024/01/22 10:33:48;;;;;;;0.40;0.40;;;;;;;-2.68;100.00;101250.47;5111764;28;20959;-56
2024/01/22 10:36:16;;;;;;;1.60;1.23;;;;;;;-2.76;100.00;101242.00;5111790;28;21034;-56
2024/01/22 10:38:45;;;;;;;2.70;0.90;;;;;;;-2.80;100.00;101252.75;5112171;28;20856;-56
2024/01/22 10:41:19;;;;;;;1.20;0.67;;;;;;;-2.73;100.00;101247.06;5111719;28;20531;-56
2024/01/22 10:43:46;;;;;;;0.40;0.40;;;;;;;-2.85;100.00;101246.81;5111867;28;20821;-56
2024/01/22 10:46:14;;;;;;;1.33;1.23;;;;;;;-2.90;100.00;101233.41;5111871;28;21014;-56
2024/01/22 10:48:42;;;;;;;0.50;0.50;;;;;;;-3.04;100.00;101226.50;5111932;27;20961;-56
2024/01/22 10:51:09;;;;;;;0.50;0.50;;;;;;;-2.91;100.00;101231.72;5111694;28;20471;-56
2024/01/22 10:53:37;;;;;;;1.60;0.63;;;;;;;-2.79;100.00;101224.44;5111629;27;20451;-55
2024/01/22 10:56:06;;;;;;;0.50;0.50;;;;;;;-2.59;100.00;101225.59;5111502;28;20551;-56
2024/01/22 10:58:42;;;;;;;1.43;1.33;;;;;;;-2.65;100.00;101225.47;5110049;28;20443;-56
2024/01/22 11:01:14;;;;;;;4.53;1.07;;;;;;;-2.57;100.00;101216.41;5111451;28;20478;-56
2024/01/22 11:03:46;;;;;;;1.83;1.07;;;;;;;-2.53;100.00;101225.69;5111427;28;20443;-56
2024/01/22 11:06:17;;;;;;;0.40;0.40;;;;;;;-2.36;100.00;101222.56;5111592;28;20483;-56
2024/01/22 11:08:46;;;;;;;2.00;1.80;;;;;;;-2.31;100.00;101216.81;5111520;28;20474;-56
2024/01/22 11:11:13;;;;;;;6.67;3.40;;;;;;;-2.34;100.00;101225.97;5111791;28;20447;-56
2024/01/22 11:13:41;;;;;;;0.40;0.40;;;;;;;-2.48;100.00;101219.91;5111404;28;20823;-56
2024/01/22 11:16:09;;;;;;;0.83;0.83;;;;;;;-2.76;100.00;101216.97;5111002;28;20493;-56
2024/01/22 11:18:36;;;;;;;0.97;0.90;;;;;;;-2.67;100.00;101214.59;5111085;28;20439;-56